AZU2855 SBGR-SBCF
Flight info
| Callsign | AZU2855 |
|---|---|
| Flight time | 0h 49m |
| Altitude | 35000 |
| Route | NUXEL UZ23 KIBAP |
| Aircraft | A20N/M-SDE2E3FGHIRWXY/LB1 |
Departure
| Time | 2026-05-08 20:49 |
|---|---|
| Airport | São Paulo/Guarulhos–Governor André Franco Montoro International Airport (SBGR) |
Arrival
| Time | 2026-05-08 21:38 |
|---|---|
| Airport | Tancredo Neves International Airport (SBCF) |
| Time | Latitude | Longitude | Altitude | Speed | Heading |
|---|---|---|---|---|---|
| 2026-05-08 20:44 | -23.42591 | -46.46190 | 2473 ft | 0 kts | 71° |
| 2026-05-08 20:45 | -23.42578 | -46.46149 | 2470 ft | 13 kts | 71° |
| 2026-05-08 20:46 | -23.42531 | -46.45996 | 2474 ft | 28 kts | 71° |
| 2026-05-08 20:46 | -23.42455 | -46.45751 | 2470 ft | 40 kts | 73° |
| 2026-05-08 20:46 | -23.42388 | -46.45445 | 2470 ft | 39 kts | 74° |
| 2026-05-08 20:46 | -23.42315 | -46.45189 | 2470 ft | 31 kts | 72° |
| 2026-05-08 20:47 | -23.42284 | -46.44974 | 2468 ft | 25 kts | 112° |
| 2026-05-08 20:47 | -23.42363 | -46.44912 | 2467 ft | 0 kts | 161° |
| 2026-05-08 20:48 | -23.42369 | -46.44910 | 2467 ft | 2 kts | 161° |
| 2026-05-08 20:48 | -23.42396 | -46.44899 | 2468 ft | 6 kts | 161° |
| 2026-05-08 20:48 | -23.42450 | -46.44889 | 2467 ft | 11 kts | 181° |
| 2026-05-08 20:48 | -23.42524 | -46.44975 | 2472 ft | 23 kts | 251° |
| 2026-05-08 20:49 | -23.42620 | -46.45326 | 2469 ft | 90 kts | 255° |
| 2026-05-08 20:49 | -23.42860 | -46.46258 | 2471 ft | 162 kts | 253° |
| 2026-05-08 20:49 | -23.43232 | -46.47618 | 2665 ft | 205 kts | 254° |
| 2026-05-08 20:49 | -23.43683 | -46.49184 | 3253 ft | 230 kts | 254° |
| 2026-05-08 20:50 | -23.44163 | -46.50865 | 4217 ft | 226 kts | 258° |
| 2026-05-08 20:50 | -23.44600 | -46.52467 | 5358 ft | 218 kts | 259° |
| 2026-05-08 20:50 | -23.45026 | -46.54076 | 6182 ft | 224 kts | 260° |
| 2026-05-08 20:50 | -23.45504 | -46.55701 | 7028 ft | 231 kts | 249° |
| 2026-05-08 20:51 | -23.46579 | -46.57087 | 7649 ft | 256 kts | 220° |
| 2026-05-08 20:51 | -23.48320 | -46.57855 | 8146 ft | 284 kts | 190° |
| 2026-05-08 20:51 | -23.50267 | -46.57746 | 9333 ft | 273 kts | 172° |
| 2026-05-08 20:51 | -23.52081 | -46.57235 | 10400 ft | 271 kts | 156° |
| 2026-05-08 20:52 | -23.53602 | -46.56005 | 11053 ft | 277 kts | 126° |
| 2026-05-08 20:52 | -23.54452 | -46.54180 | 11776 ft | 274 kts | 102° |
| 2026-05-08 20:52 | -23.54922 | -46.52100 | 12226 ft | 293 kts | 98° |
| 2026-05-08 20:52 | -23.55355 | -46.49845 | 12549 ft | 316 kts | 98° |
| 2026-05-08 20:53 | -23.55847 | -46.47421 | 12814 ft | 340 kts | 99° |
| 2026-05-08 20:53 | -23.56422 | -46.44833 | 13048 ft | 363 kts | 101° |
| 2026-05-08 20:53 | -23.57062 | -46.42107 | 13474 ft | 376 kts | 102° |
| 2026-05-08 20:53 | -23.57637 | -46.39314 | 14206 ft | 377 kts | 94° |
| 2026-05-08 20:54 | -23.57725 | -46.36464 | 14826 ft | 377 kts | 82° |
| 2026-05-08 20:54 | -23.57278 | -46.33642 | 15432 ft | 379 kts | 72° |
| 2026-05-08 20:54 | -23.56643 | -46.30836 | 16089 ft | 382 kts | 72° |
| 2026-05-08 20:54 | -23.56013 | -46.28005 | 16703 ft | 386 kts | 72° |
| 2026-05-08 20:55 | -23.55245 | -46.25198 | 17325 ft | 385 kts | 62° |
| 2026-05-08 20:55 | -23.53820 | -46.22772 | 17908 ft | 381 kts | 44° |
| 2026-05-08 20:55 | -23.51816 | -46.20971 | 18432 ft | 378 kts | 26° |
| 2026-05-08 20:55 | -23.49405 | -46.19870 | 18910 ft | 377 kts | 15° |
| 2026-05-08 20:56 | -23.46906 | -46.18964 | 19424 ft | 380 kts | 14° |
| 2026-05-08 20:56 | -23.44386 | -46.18056 | 19963 ft | 383 kts | 14° |
| 2026-05-08 20:56 | -23.41842 | -46.17134 | 20469 ft | 387 kts | 14° |
| 2026-05-08 20:56 | -23.39277 | -46.16200 | 20946 ft | 391 kts | 15° |
| 2026-05-08 20:57 | -23.36686 | -46.15253 | 21441 ft | 395 kts | 15° |
| 2026-05-08 20:57 | -23.34072 | -46.14296 | 21961 ft | 398 kts | 14° |
| 2026-05-08 20:57 | -23.31436 | -46.13331 | 22468 ft | 401 kts | 14° |
| 2026-05-08 20:57 | -23.28806 | -46.12368 | 22940 ft | 405 kts | 14° |
| 2026-05-08 20:58 | -23.26123 | -46.11386 | 23453 ft | 408 kts | 14° |
| 2026-05-08 20:58 | -23.23415 | -46.10394 | 23897 ft | 411 kts | 14° |
| 2026-05-08 20:58 | -23.20693 | -46.09398 | 24360 ft | 413 kts | 14° |
| 2026-05-08 20:58 | -23.17961 | -46.08400 | 24802 ft | 416 kts | 14° |
| 2026-05-08 20:59 | -23.15207 | -46.07395 | 25238 ft | 418 kts | 14° |
| 2026-05-08 20:59 | -23.12439 | -46.06386 | 25637 ft | 422 kts | 14° |
| 2026-05-08 20:59 | -23.09648 | -46.05369 | 26035 ft | 425 kts | 14° |
| 2026-05-08 20:59 | -23.06834 | -46.04343 | 26462 ft | 427 kts | 14° |
| 2026-05-08 21:00 | -23.04006 | -46.03312 | 26866 ft | 429 kts | 13° |
| 2026-05-08 21:00 | -23.01167 | -46.02277 | 27252 ft | 432 kts | 13° |
| 2026-05-08 21:00 | -22.98308 | -46.01229 | 27580 ft | 435 kts | 13° |
| 2026-05-08 21:00 | -22.95430 | -46.00177 | 28006 ft | 438 kts | 13° |
| 2026-05-08 21:01 | -22.92566 | -45.99142 | 28423 ft | 439 kts | 13° |
| 2026-05-08 21:01 | -22.89653 | -45.98088 | 28797 ft | 442 kts | 12° |
| 2026-05-08 21:01 | -22.86696 | -45.97207 | 29047 ft | 441 kts | 8° |
| 2026-05-08 21:01 | -22.83686 | -45.96437 | 29321 ft | 445 kts | 8° |
| 2026-05-08 21:02 | -22.80663 | -45.95660 | 29677 ft | 448 kts | 8° |
| 2026-05-08 21:02 | -22.77624 | -45.94878 | 30069 ft | 449 kts | 8° |
| 2026-05-08 21:02 | -22.74570 | -45.94092 | 30356 ft | 453 kts | 8° |
| 2026-05-08 21:02 | -22.71491 | -45.93298 | 30640 ft | 455 kts | 8° |
| 2026-05-08 21:03 | -22.68395 | -45.92501 | 30931 ft | 458 kts | 8° |
| 2026-05-08 21:03 | -22.65288 | -45.91700 | 31250 ft | 460 kts | 8° |
| 2026-05-08 21:03 | -22.62174 | -45.90896 | 31639 ft | 459 kts | 8° |
| 2026-05-08 21:03 | -22.59103 | -45.90105 | 31961 ft | 460 kts | 8° |
| 2026-05-08 21:04 | -22.55973 | -45.89297 | 32245 ft | 461 kts | 8° |
| 2026-05-08 21:04 | -22.52851 | -45.88487 | 32552 ft | 462 kts | 8° |
| 2026-05-08 21:04 | -22.49719 | -45.87682 | 32914 ft | 461 kts | 7° |
| 2026-05-08 21:04 | -22.46588 | -45.86878 | 33215 ft | 462 kts | 7° |
| 2026-05-08 21:05 | -22.43455 | -45.86075 | 33539 ft | 462 kts | 7° |
| 2026-05-08 21:05 | -22.40332 | -45.85275 | 33921 ft | 461 kts | 7° |
| 2026-05-08 21:05 | -22.38265 | -45.84746 | 34126 ft | 461 kts | 7° |
| 2026-05-08 21:05 | -22.34129 | -45.83686 | 34476 ft | 461 kts | 7° |
| 2026-05-08 21:06 | -22.31024 | -45.82691 | 34699 ft | 468 kts | 14° |
| 2026-05-08 21:06 | -22.28021 | -45.81269 | 34943 ft | 474 kts | 22° |
| 2026-05-08 21:06 | -22.25171 | -45.79433 | 35025 ft | 479 kts | 30° |
| 2026-05-08 21:07 | -22.19916 | -45.74956 | 35034 ft | 481 kts | 34° |
| 2026-05-08 21:07 | -22.15578 | -45.71194 | 35034 ft | 481 kts | 34° |
| 2026-05-08 21:08 | -22.10347 | -45.66677 | 35033 ft | 481 kts | 33° |
| 2026-05-08 21:08 | -22.05116 | -45.62167 | 35033 ft | 481 kts | 33° |
| 2026-05-08 21:09 | -21.99864 | -45.57645 | 35033 ft | 484 kts | 34° |
| 2026-05-08 21:09 | -21.94603 | -45.53119 | 35038 ft | 483 kts | 34° |
| 2026-05-08 21:10 | -21.89397 | -45.48641 | 35040 ft | 482 kts | 34° |
| 2026-05-08 21:10 | -21.84151 | -45.44136 | 35040 ft | 482 kts | 34° |
| 2026-05-08 21:11 | -21.78905 | -45.39635 | 35039 ft | 482 kts | 34° |
| 2026-05-08 21:11 | -21.73653 | -45.35135 | 35042 ft | 483 kts | 34° |
| 2026-05-08 21:12 | -21.68400 | -45.30638 | 35047 ft | 483 kts | 34° |
| 2026-05-08 21:12 | -21.63136 | -45.26134 | 35046 ft | 483 kts | 34° |
| 2026-05-08 21:13 | -21.57867 | -45.21630 | 35051 ft | 484 kts | 34° |
| 2026-05-08 21:13 | -21.52619 | -45.17151 | 35055 ft | 484 kts | 35° |
| 2026-05-08 21:14 | -21.47343 | -45.12650 | 35060 ft | 484 kts | 35° |
| 2026-05-08 21:14 | -21.42050 | -45.08139 | 35065 ft | 484 kts | 35° |
| 2026-05-08 21:15 | -21.36770 | -45.03643 | 35056 ft | 484 kts | 35° |
| 2026-05-08 21:15 | -21.31487 | -44.99148 | 35056 ft | 484 kts | 35° |
| 2026-05-08 21:16 | -21.26209 | -44.94662 | 35056 ft | 484 kts | 35° |
| 2026-05-08 21:16 | -21.20926 | -44.90176 | 35054 ft | 484 kts | 35° |
| 2026-05-08 21:17 | -21.15646 | -44.85698 | 35057 ft | 484 kts | 35° |
| 2026-05-08 21:17 | -21.10401 | -44.81253 | 35054 ft | 484 kts | 35° |
| 2026-05-08 21:18 | -21.05128 | -44.76788 | 35060 ft | 483 kts | 35° |
| 2026-05-08 21:18 | -20.99732 | -44.72551 | 34742 ft | 479 kts | 32° |
| 2026-05-08 21:18 | -20.97007 | -44.70514 | 34223 ft | 478 kts | 32° |
| 2026-05-08 21:19 | -20.94275 | -44.68464 | 33522 ft | 478 kts | 32° |
| 2026-05-08 21:19 | -20.91559 | -44.66411 | 32795 ft | 478 kts | 32° |
| 2026-05-08 21:19 | -20.88844 | -44.64349 | 32040 ft | 478 kts | 32° |
| 2026-05-08 21:19 | -20.86140 | -44.62289 | 31298 ft | 478 kts | 33° |
| 2026-05-08 21:20 | -20.83433 | -44.60228 | 30579 ft | 477 kts | 33° |
| 2026-05-08 21:20 | -20.80637 | -44.58355 | 29948 ft | 471 kts | 25° |
| 2026-05-08 21:20 | -20.77692 | -44.56889 | 29292 ft | 464 kts | 18° |
| 2026-05-08 21:20 | -20.74651 | -44.55829 | 28692 ft | 456 kts | 12° |
| 2026-05-08 21:21 | -20.71591 | -44.55011 | 28092 ft | 451 kts | 12° |
| 2026-05-08 21:21 | -20.68573 | -44.54196 | 27508 ft | 446 kts | 12° |
| 2026-05-08 21:21 | -20.65579 | -44.53384 | 26923 ft | 441 kts | 12° |
| 2026-05-08 21:21 | -20.62623 | -44.52581 | 26368 ft | 436 kts | 12° |
| 2026-05-08 21:22 | -20.59727 | -44.51795 | 25821 ft | 432 kts | 12° |
| 2026-05-08 21:22 | -20.56833 | -44.51010 | 25379 ft | 425 kts | 12° |
| 2026-05-08 21:22 | -20.53986 | -44.50239 | 24796 ft | 421 kts | 13° |
| 2026-05-08 21:22 | -20.51119 | -44.49463 | 23890 ft | 428 kts | 13° |
| 2026-05-08 21:23 | -20.48210 | -44.48678 | 22736 ft | 435 kts | 13° |
| 2026-05-08 21:23 | -20.45246 | -44.47877 | 21450 ft | 441 kts | 13° |
| 2026-05-08 21:23 | -20.42236 | -44.47063 | 19852 ft | 447 kts | 13° |
| 2026-05-08 21:23 | -20.39243 | -44.46253 | 18965 ft | 437 kts | 13° |
| 2026-05-08 21:24 | -20.36377 | -44.45477 | 18653 ft | 412 kts | 13° |
| 2026-05-08 21:24 | -20.33682 | -44.44743 | 18417 ft | 388 kts | 13° |
| 2026-05-08 21:24 | -20.31145 | -44.44051 | 17840 ft | 375 kts | 13° |
| 2026-05-08 21:24 | -20.28632 | -44.43366 | 17044 ft | 370 kts | 13° |
| 2026-05-08 21:25 | -20.26153 | -44.42691 | 16261 ft | 364 kts | 13° |
| 2026-05-08 21:25 | -20.23718 | -44.42029 | 15525 ft | 359 kts | 14° |
| 2026-05-08 21:25 | -20.21312 | -44.41376 | 14805 ft | 354 kts | 14° |
| 2026-05-08 21:25 | -20.18948 | -44.40734 | 14110 ft | 348 kts | 14° |
| 2026-05-08 21:26 | -20.16614 | -44.40100 | 13339 ft | 344 kts | 14° |
| 2026-05-08 21:26 | -20.14305 | -44.39472 | 12573 ft | 340 kts | 14° |
| 2026-05-08 21:26 | -20.12028 | -44.38853 | 11839 ft | 335 kts | 14° |
| 2026-05-08 21:26 | -20.09790 | -44.38245 | 11307 ft | 327 kts | 14° |
| 2026-05-08 21:27 | -20.07566 | -44.37640 | 11123 ft | 332 kts | 14° |
| 2026-05-08 21:27 | -20.05325 | -44.37032 | 11065 ft | 331 kts | 14° |
| 2026-05-08 21:27 | -20.03089 | -44.36425 | 11064 ft | 332 kts | 14° |
| 2026-05-08 21:27 | -20.00837 | -44.35815 | 11061 ft | 333 kts | 14° |
| 2026-05-08 21:28 | -19.98630 | -44.35218 | 10946 ft | 329 kts | 14° |
| 2026-05-08 21:28 | -19.96415 | -44.34618 | 10564 ft | 327 kts | 14° |
| 2026-05-08 21:28 | -19.94229 | -44.34026 | 10346 ft | 317 kts | 13° |
| 2026-05-08 21:28 | -19.92134 | -44.33459 | 10229 ft | 303 kts | 13° |
| 2026-05-08 21:29 | -19.90132 | -44.32918 | 10123 ft | 290 kts | 13° |
| 2026-05-08 21:29 | -19.88215 | -44.32397 | 9946 ft | 280 kts | 13° |
| 2026-05-08 21:29 | -19.86335 | -44.31889 | 9542 ft | 278 kts | 14° |
| 2026-05-08 21:29 | -19.84466 | -44.31386 | 9190 ft | 275 kts | 14° |
| 2026-05-08 21:30 | -19.82612 | -44.30886 | 9075 ft | 275 kts | 14° |
| 2026-05-08 21:30 | -19.80780 | -44.30392 | 8904 ft | 275 kts | 14° |
| 2026-05-08 21:30 | -19.78924 | -44.29892 | 8538 ft | 275 kts | 14° |
| 2026-05-08 21:30 | -19.77079 | -44.29356 | 8185 ft | 276 kts | 19° |
| 2026-05-08 21:31 | -19.75329 | -44.28518 | 8211 ft | 273 kts | 29° |
| 2026-05-08 21:31 | -19.73720 | -44.27484 | 8571 ft | 274 kts | 30° |
| 2026-05-08 21:31 | -19.72061 | -44.26439 | 8557 ft | 278 kts | 29° |
| 2026-05-08 21:31 | -19.70396 | -44.25401 | 8552 ft | 277 kts | 29° |
| 2026-05-08 21:32 | -19.68734 | -44.24367 | 8558 ft | 278 kts | 29° |
| 2026-05-08 21:32 | -19.67069 | -44.23327 | 8553 ft | 277 kts | 30° |
| 2026-05-08 21:32 | -19.65408 | -44.22289 | 8555 ft | 277 kts | 28° |
| 2026-05-08 21:32 | -19.63691 | -44.21351 | 8552 ft | 277 kts | 26° |
| 2026-05-08 21:33 | -19.61968 | -44.20429 | 8551 ft | 277 kts | 26° |
| 2026-05-08 21:33 | -19.60272 | -44.19519 | 8554 ft | 277 kts | 26° |
| 2026-05-08 21:33 | -19.58584 | -44.18612 | 8549 ft | 263 kts | 26° |
| 2026-05-08 21:33 | -19.57017 | -44.17721 | 8550 ft | 248 kts | 32° |
| 2026-05-08 21:34 | -19.55701 | -44.16618 | 8385 ft | 240 kts | 43° |
| 2026-05-08 21:34 | -19.54558 | -44.15273 | 7804 ft | 250 kts | 47° |
| 2026-05-08 21:34 | -19.53405 | -44.13865 | 7294 ft | 250 kts | 48° |
| 2026-05-08 21:34 | -19.52295 | -44.12517 | 7120 ft | 236 kts | 47° |
| 2026-05-08 21:35 | -19.51260 | -44.11232 | 7052 ft | 222 kts | 54° |
| 2026-05-08 21:35 | -19.50814 | -44.09753 | 7035 ft | 209 kts | 91° |
| 2026-05-08 21:35 | -19.51285 | -44.08295 | 6700 ft | 215 kts | 125° |
| 2026-05-08 21:35 | -19.52271 | -44.07175 | 6617 ft | 201 kts | 136° |
| 2026-05-08 21:36 | -19.53346 | -44.06207 | 6206 ft | 207 kts | 138° |
| 2026-05-08 21:36 | -19.54452 | -44.05176 | 5681 ft | 214 kts | 137° |
| 2026-05-08 21:36 | -19.55572 | -44.04140 | 5264 ft | 212 kts | 136° |
| 2026-05-08 21:36 | -19.56674 | -44.03115 | 4837 ft | 209 kts | 136° |
| 2026-05-08 21:37 | -19.57762 | -44.02102 | 4339 ft | 208 kts | 136° |
| 2026-05-08 21:37 | -19.58820 | -44.01120 | 4022 ft | 189 kts | 135° |
| 2026-05-08 21:37 | -19.59765 | -44.00238 | 3578 ft | 178 kts | 136° |
| 2026-05-08 21:37 | -19.60665 | -43.99407 | 3214 ft | 166 kts | 137° |
| 2026-05-08 21:38 | -19.61473 | -43.98648 | 2986 ft | 147 kts | 136° |
| 2026-05-08 21:38 | -19.62209 | -43.97966 | 2857 ft | 134 kts | 137° |
| 2026-05-08 21:38 | -19.62856 | -43.97340 | 2811 ft | 111 kts | 138° |
| 2026-05-08 21:38 | -19.63214 | -43.97006 | 2810 ft | 45 kts | 137° |
| 2026-05-08 21:39 | -19.63415 | -43.96829 | 2811 ft | 32 kts | 139° |
| 2026-05-08 21:39 | -19.63546 | -43.96686 | 2813 ft | 22 kts | 120° |
| 2026-05-08 21:39 | -19.63601 | -43.96554 | 2813 ft | 20 kts | 109° |
| 2026-05-08 21:39 | -19.63641 | -43.96417 | 2816 ft | 16 kts | 98° |
| 2026-05-08 21:40 | -19.63577 | -43.96343 | 2812 ft | 14 kts | 18° |
| 2026-05-08 21:40 | -19.63483 | -43.96303 | 2815 ft | 15 kts | 352° |
| 2026-05-08 21:40 | -19.63412 | -43.96357 | 2815 ft | 7 kts | 6° |
| 2026-05-08 21:41 | -19.63381 | -43.96339 | 2814 ft | 5 kts | 28° |
| 2026-05-08 21:41 | -19.63380 | -43.96339 | 2814 ft | 0 kts | 28° |